Spry, Pennsylvania
Current Conditions -  °F | °C
As of 5:53 AM on Wednesday 22 Oct 2014 (Local Time) from KTHV Reporting Station
Overcast Overcast  
Wind Chill: 52°   Ceiling: 3700
Heat Index: 52°   Visibility: 10mi
Dew Point: 49°   Wind: 7mph
Humidity: 89%   Direction: 310°NW
Pressure: 29.91"   Gusts: NA
Location:  39.9768°N, 76.6853°W
Report Text: KTHV 220953Z AUTO 31006KT 10SM OVC037 11/09 A2991 RMK AO2 RAE10 SLP129 P0001 T01110094
Loading
Personal Weather Stations






























Interactive Weather Map
Tropical Storm Tracking
New forecast layout! Learn more

10-Day Weather Forecast

Advertisements
Track Severe Weather on mobile